Time;durP1;ratioP1;P1;durP2;ratioP2;P2;SDS_P1;SDS_P2;PMS_P1;PMS_P2;Temp;Humidity;BMP_temperature;BMP_pressure;BME280_temperature;BME280_humidity;BME280_pressure;Samples;Min_cycle;Max_cycle;Signal;HPM_P1;HPM_P2
2022/05/26 00:01:52;;;;;;;2.83;1.10;;;19.40;60.00;;;;;;5024564;28;20596;-72
2022/05/26 00:04:18;;;;;;;3.00;1.00;;;19.30;60.40;;;;;;5042772;28;20265;-71
2022/05/26 00:06:44;;;;;;;2.33;0.70;;;19.30;61.00;;;;;;5053626;28;20637;-71
2022/05/26 00:09:10;;;;;;;1.80;0.70;;;19.30;61.20;;;;;;5051541;28;20588;-71
2022/05/26 00:11:38;;;;;;;1.30;0.60;;;19.30;61.70;;;;;;5045044;28;20581;-73
2022/05/26 00:14:09;;;;;;;1.83;0.60;;;19.20;61.60;;;;;;5041539;28;20588;-73
2022/05/26 00:16:41;;;;;;;1.60;0.50;;;19.20;63.00;;;;;;5043283;28;20962;-73
2022/05/26 00:19:08;;;;;;;2.23;0.50;;;19.20;62.80;;;;;;5050424;28;20570;-73
2022/05/26 00:21:34;;;;;;;2.17;0.50;;;19.10;63.00;;;;;;5049731;28;20686;-73
2022/05/26 00:24:00;;;;;;;2.20;0.50;;;19.10;63.30;;;;;;5040253;28;20623;-73
2022/05/26 00:26:26;;;;;;;2.13;0.50;;;19.10;64.40;;;;;;5044918;28;20604;-73
2022/05/26 00:28:52;;;;;;;1.40;0.60;;;19.10;64.50;;;;;;5044199;28;20592;-73
2022/05/26 00:31:18;;;;;;;1.87;0.50;;;19.10;65.30;;;;;;5046002;28;20200;-73
2022/05/26 00:33:45;;;;;;;2.60;0.50;;;19.10;65.40;;;;;;5023697;28;20585;-73
2022/05/26 00:36:13;;;;;;;1.30;0.47;;;19.10;66.00;;;;;;5042070;28;20645;-72
2022/05/26 00:38:39;;;;;;;1.60;0.60;;;19.10;66.30;;;;;;5045011;28;20576;-73
2022/05/26 00:41:11;;;;;;;1.63;0.50;;;19.00;67.30;;;;;;5052517;28;20596;-73
2022/05/26 00:43:45;;;;;;;1.57;0.57;;;19.10;67.80;;;;;;5053157;28;20912;-73
2022/05/26 00:46:46;;;;;;;2.47;0.60;;;19.00;69.20;;;;;;5052626;28;20678;-72
2022/05/26 00:49:41;;;;;;;3.47;0.70;;;19.00;69.40;;;;;;5017592;28;20648;-71
2022/05/26 00:52:21;;;;;;;2.90;0.63;;;18.90;71.90;;;;;;5033048;28;20944;-71
2022/05/26 00:54:50;;;;;;;1.50;0.50;;;18.90;72.10;;;;;;5052855;28;20626;-71
2022/05/26 00:57:25;;;;;;;1.93;0.50;;;18.90;71.70;;;;;;5052933;28;20698;-71
2022/05/26 01:00:07;;;;;;;2.10;0.50;;;18.80;72.90;;;;;;5051830;28;21139;-71
2022/05/26 01:02:41;;;;;;;2.63;0.53;;;18.80;72.90;;;;;;5034900;28;20591;-71
2022/05/26 01:05:18;;;;;;;1.17;0.50;;;18.80;73.90;;;;;;5052627;28;20570;-72
2022/05/26 01:07:44;;;;;;;1.67;0.50;;;18.80;74.90;;;;;;5052422;28;20622;-72
2022/05/26 01:10:13;;;;;;;2.40;0.63;;;18.70;74.70;;;;;;5033874;28;20559;-71
2022/05/26 01:12:38;;;;;;;2.67;0.50;;;18.70;75.50;;;;;;5052512;28;20567;-72
2022/05/26 01:15:09;;;;;;;1.20;0.50;;;18.70;75.80;;;;;;5052076;28;20725;-72
2022/05/26 01:17:50;;;;;;;1.57;0.50;;;18.70;76.60;;;;;;5052415;28;20243;-72
2022/05/26 01:20:30;;;;;;;1.77;0.60;;;18.70;77.80;;;;;;5051596;28;20559;-71
2022/05/26 01:23:02;;;;;;;2.47;0.50;;;18.60;78.90;;;;;;5052225;28;20570;-71
2022/05/26 01:26:03;;;;;;;1.57;0.50;;;18.60;78.70;;;;;;5052335;28;20602;-71
2022/05/26 01:28:59;;;;;;;2.43;0.60;;;18.60;81.00;;;;;;5052161;28;20614;-71
2022/05/26 01:31:46;;;;;;;1.30;0.50;;;18.60;80.90;;;;;;5051449;28;20567;-72
2022/05/26 01:34:39;;;;;;;2.50;0.50;;;18.60;81.70;;;;;;5052080;28;21212;-71
2022/05/26 01:37:31;;;;;;;1.60;0.57;;;18.50;82.40;;;;;;5052087;28;20591;-72
2022/05/26 01:40:08;;;;;;;1.60;0.50;;;18.50;83.50;;;;;;5051370;28;20579;-71
2022/05/26 01:42:51;;;;;;;2.20;0.53;;;18.50;82.50;;;;;;5051816;28;20567;-71
2022/05/26 01:45:42;;;;;;;2.03;0.73;;;18.40;83.30;;;;;;5034149;28;20575;-72
2022/05/26 01:48:17;;;;;;;2.13;0.80;;;18.40;84.60;;;;;;5051732;28;20757;-71
2022/05/26 01:51:05;;;;;;;3.00;0.73;;;18.40;84.70;;;;;;5050968;28;20555;-72
2022/05/26 01:54:00;;;;;;;1.43;0.80;;;18.40;85.30;;;;;;5051891;28;20570;-71
2022/05/26 01:56:27;;;;;;;2.10;0.80;;;18.40;86.40;;;;;;5033683;28;20607;-71
2022/05/26 01:59:06;;;;;;;2.17;0.60;;;18.40;85.60;;;;;;5051605;28;20591;-71
2022/05/26 02:01:37;;;;;;;1.30;0.50;;;18.30;86.90;;;;;;5017169;28;20571;-71
2022/05/26 02:04:08;;;;;;;2.43;0.60;;;18.30;87.60;;;;;;5051837;28;21167;-71
2022/05/26 02:06:40;;;;;;;2.53;0.60;;;18.30;88.20;;;;;;5051442;28;21016;-71
2022/05/26 02:09:07;;;;;;;1.60;0.50;;;18.30;89.00;;;;;;5051200;28;20591;-71
2022/05/26 02:11:38;;;;;;;1.40;0.53;;;18.30;88.80;;;;;;5051093;28;21115;-71
2022/05/26 02:14:14;;;;;;;1.57;0.40;;;18.30;90.10;;;;;;5051489;28;20566;-71
2022/05/26 02:16:51;;;;;;;3.10;0.60;;;18.30;90.00;;;;;;5051395;28;21154;-72
2022/05/26 02:19:30;;;;;;;1.60;0.50;;;18.30;90.30;;;;;;5051066;28;20575;-71
2022/05/26 02:22:07;;;;;;;1.50;0.50;;;18.40;90.60;;;;;;5051318;28;20602;-71
2022/05/26 02:24:39;;;;;;;1.20;0.50;;;18.40;90.70;;;;;;5051464;28;20567;-72
2022/05/26 02:27:06;;;;;;;2.60;0.60;;;18.40;90.90;;;;;;5051348;28;20599;-72
2022/05/26 02:32:37;;;;;;;1.47;0.60;;;18.40;91.20;;;;;;5051252;28;20563;-72
2022/05/26 02:35:12;;;;;;;1.97;0.60;;;18.40;91.30;;;;;;5050310;28;20646;-72
2022/05/26 02:37:40;;;;;;;6.60;0.60;;;18.50;91.90;;;;;;5051272;28;20595;-71
2022/05/26 02:40:07;;;;;;;1.70;0.60;;;18.50;92.10;;;;;;5032709;28;20947;-72
2022/05/26 02:42:33;;;;;;;1.40;0.60;;;18.50;92.20;;;;;;5032858;28;20641;-71
2022/05/26 02:44:59;;;;;;;1.50;0.50;;;18.50;92.20;;;;;;5051326;28;20563;-71
2022/05/26 02:47:41;;;;;;;1.70;0.60;;;18.50;92.40;;;;;;5051081;28;20583;-72
2022/05/26 02:50:37;;;;;;;3.10;0.50;;;18.50;93.10;;;;;;5049515;28;20933;-71
2022/05/26 02:53:28;;;;;;;1.33;0.50;;;18.50;93.30;;;;;;5034852;28;20576;-72
2022/05/26 02:56:30;;;;;;;2.03;0.50;;;18.50;93.80;;;;;;5025063;28;20685;-71
2022/05/26 02:59:04;;;;;;;2.50;0.50;;;18.50;93.60;;;;;;5033959;28;20687;-71
2022/05/26 03:01:38;;;;;;;1.97;0.60;;;18.50;93.30;;;;;;5031448;28;20572;-71
2022/05/26 03:04:10;;;;;;;2.13;0.50;;;18.40;93.70;;;;;;5034089;28;20609;-71
2022/05/26 03:06:41;;;;;;;1.53;0.63;;;18.40;94.20;;;;;;5051103;28;20602;-71
2022/05/26 03:09:08;;;;;;;7.53;2.40;;;18.40;94.20;;;;;;5036578;28;20655;-71
2022/05/26 03:11:51;;;;;;;1.30;0.50;;;18.40;94.50;;;;;;5054218;28;20564;-71
2022/05/26 03:14:18;;;;;;;1.30;0.50;;;18.40;95.30;;;;;;5054798;28;20893;-71
2022/05/26 03:16:44;;;;;;;1.70;0.70;;;18.40;94.80;;;;;;5054678;28;20591;-71
2022/05/26 03:19:11;;;;;;;1.50;0.57;;;18.40;94.90;;;;;;5054304;28;20563;-71
2022/05/26 03:21:37;;;;;;;2.60;0.70;;;18.40;95.10;;;;;;5054101;28;20609;-71
2022/05/26 03:24:04;;;;;;;1.50;0.50;;;18.40;95.40;;;;;;5054517;28;20559;-71
2022/05/26 03:26:30;;;;;;;2.07;0.60;;;18.40;95.70;;;;;;5054488;28;20587;-71
2022/05/26 03:28:55;;;;;;;1.20;0.50;;;18.40;96.00;;;;;;5027652;28;21443;-71
2022/05/26 03:31:21;;;;;;;2.00;0.80;;;18.40;96.10;;;;;;5025252;28;20710;-71
2022/05/26 03:42:00;;;;;;;1.40;0.70;;;18.40;96.60;;;;;;5053942;28;20954;-71
2022/05/26 03:44:29;;;;;;;2.87;0.60;;;18.50;97.00;;;;;;5054274;28;20562;-71
2022/05/26 03:46:55;;;;;;;3.10;0.90;;;18.50;97.10;;;;;;5054057;28;20599;-71
2022/05/26 03:49:20;;;;;;;2.60;0.70;;;18.50;97.30;;;;;;5035481;28;20578;-71
2022/05/26 03:51:46;;;;;;;2.77;0.77;;;18.50;97.50;;;;;;5035893;28;20234;-71
2022/05/26 03:54:12;;;;;;;2.27;0.63;;;18.50;97.60;;;;;;5053671;28;20161;-72
2022/05/26 03:56:38;;;;;;;1.33;0.63;;;18.50;98.00;;;;;;5053795;28;20607;-71
2022/05/26 03:59:04;;;;;;;1.50;0.60;;;18.50;98.00;;;;;;5035756;28;20531;-71
2022/05/26 04:01:29;;;;;;;3.10;0.60;;;18.50;98.10;;;;;;5053130;28;20571;-71
2022/05/26 04:03:55;;;;;;;4.40;0.80;;;18.50;98.10;;;;;;5053903;28;20165;-71
2022/05/26 04:06:22;;;;;;;1.43;0.63;;;18.50;98.40;;;;;;5053369;28;20700;-72
2022/05/26 04:08:47;;;;;;;1.70;0.70;;;18.50;98.50;;;;;;5053300;28;20176;-71
2022/05/26 04:11:13;;;;;;;1.60;0.60;;;18.50;98.70;;;;;;5052806;28;20567;-72
2022/05/26 04:13:39;;;;;;;3.67;0.60;;;18.50;98.80;;;;;;5053367;28;20215;-73
2022/05/26 04:16:05;;;;;;;1.83;0.60;;;18.50;98.90;;;;;;5053590;28;20201;-71
2022/05/26 04:18:31;;;;;;;2.83;0.70;;;18.50;99.10;;;;;;5053105;28;20157;-71
2022/05/26 04:21:11;;;;;;;2.60;0.80;;;18.60;99.30;;;;;;5052795;28;20560;-71
2022/05/26 04:23:37;;;;;;;2.60;0.70;;;18.60;99.80;;;;;;5053245;28;20157;-71
2022/05/26 04:26:05;;;;;;;2.50;0.80;;;18.60;99.60;;;;;;5053151;28;20658;-72
2022/05/26 04:28:31;;;;;;;3.47;0.80;;;18.60;99.80;;;;;;5053510;28;20613;-71
2022/05/26 04:30:57;;;;;;;1.77;0.80;;;18.60;99.80;;;;;;5052612;28;20568;-72
2022/05/26 04:33:23;;;;;;;3.73;0.80;;;18.60;99.90;;;;;;5035391;28;20980;-71
2022/05/26 04:35:49;;;;;;;4.17;0.77;;;18.60;99.90;;;;;;5053332;28;20225;-71
2022/05/26 04:38:15;;;;;;;2.90;0.80;;;18.60;99.90;;;;;;5053039;28;21189;-71
2022/05/26 04:40:41;;;;;;;3.50;0.90;;;18.60;99.90;;;;;;5052465;28;20176;-71
2022/05/26 04:43:07;;;;;;;1.90;0.93;;;18.60;99.90;;;;;;5053249;28;20175;-71
2022/05/26 04:45:33;;;;;;;3.83;0.83;;;18.60;99.90;;;;;;5035094;28;21154;-71
2022/05/26 04:47:59;;;;;;;1.40;0.70;;;18.60;99.90;;;;;;5052951;28;20611;-72
2022/05/26 04:50:25;;;;;;;3.10;1.20;;;18.60;99.90;;;;;;5034433;28;20597;-71
2022/05/26 04:52:51;;;;;;;1.70;0.90;;;18.60;99.90;;;;;;5034802;28;20603;-72
2022/05/26 04:55:17;;;;;;;1.93;0.90;;;18.60;99.90;;;;;;5052839;28;20647;-71
2022/05/26 04:57:43;;;;;;;1.90;0.80;;;18.60;99.90;;;;;;5051868;28;20189;-72
2022/05/26 05:00:16;;;;;;;3.60;0.80;;;18.60;99.90;;;;;;5051656;28;20917;-71
2022/05/26 05:02:42;;;;;;;3.50;0.87;;;18.60;99.90;;;;;;5052883;28;20568;-71
2022/05/26 05:05:09;;;;;;;1.47;0.80;;;18.60;99.90;;;;;;5052652;28;20568;-72
2022/05/26 05:07:35;;;;;;;2.53;1.40;;;18.70;99.90;;;;;;5040599;28;22179;-71
2022/05/26 05:10:01;;;;;;;3.00;1.23;;;18.70;99.90;;;;;;5040144;28;20612;-71
2022/05/26 05:12:28;;;;;;;2.40;1.10;;;18.70;99.90;;;;;;5045624;28;20654;-71
2022/05/26 05:14:56;;;;;;;3.30;1.10;;;18.70;99.90;;;;;;5042191;28;20663;-71
2022/05/26 05:17:24;;;;;;;2.80;1.30;;;18.70;99.90;;;;;;5050296;28;20611;-71
2022/05/26 05:19:50;;;;;;;3.53;1.07;;;18.70;99.90;;;;;;5051512;28;20568;-71
2022/05/26 05:22:29;;;;;;;2.23;1.10;;;18.80;99.90;;;;;;5034539;28;20583;-72
2022/05/26 05:25:14;;;;;;;2.53;0.80;;;18.80;99.90;;;;;;5034368;28;20259;-71
2022/05/26 05:27:46;;;;;;;3.37;0.97;;;18.80;99.90;;;;;;5034157;28;20595;-71
2022/05/26 05:30:22;;;;;;;3.87;1.53;;;18.90;99.90;;;;;;5032836;28;20658;-71
2022/05/26 05:33:11;;;;;;;4.10;1.07;;;18.90;99.90;;;;;;5052134;28;20578;-71
2022/05/26 05:35:42;;;;;;;5.10;1.10;;;19.00;99.90;;;;;;5052075;28;20615;-71
2022/05/26 05:38:08;;;;;;;2.80;1.10;;;19.00;99.90;;;;;;5052094;28;20686;-71
2022/05/26 05:40:35;;;;;;;3.50;1.47;;;19.00;99.90;;;;;;5051122;28;20567;-72
2022/05/26 05:43:01;;;;;;;4.77;1.30;;;19.00;99.90;;;;;;5034223;28;20625;-71
2022/05/26 05:45:27;;;;;;;2.53;1.00;;;19.10;99.90;;;;;;5052017;28;20568;-71
2022/05/26 05:47:53;;;;;;;3.50;1.43;;;19.10;99.90;;;;;;5033995;28;20596;-71
2022/05/26 05:50:19;;;;;;;5.40;1.13;;;19.10;99.90;;;;;;5050966;28;20937;-71
2022/05/26 05:52:44;;;;;;;5.60;1.63;;;19.10;99.90;;;;;;5051793;28;20170;-71
2022/05/26 05:55:10;;;;;;;4.93;1.40;;;19.10;99.90;;;;;;5051277;28;20279;-71
2022/05/26 05:57:36;;;;;;;3.37;1.10;;;19.20;99.90;;;;;;5033544;28;20542;-71
2022/05/26 06:00:04;;;;;;;3.70;1.30;;;19.20;99.90;;;;;;5049504;28;20171;-71
2022/05/26 06:02:32;;;;;;;4.17;1.10;;;19.20;99.90;;;;;;5030830;28;20584;-71
2022/05/26 06:04:57;;;;;;;4.80;1.57;;;19.20;99.90;;;;;;5031552;28;20952;-71
2022/05/26 06:07:23;;;;;;;3.57;1.30;;;19.30;99.90;;;;;;5031498;28;20220;-71
2022/05/26 06:09:50;;;;;;;3.50;1.70;;;19.50;99.90;;;;;;5030408;28;20539;-71
2022/05/26 06:12:16;;;;;;;4.03;1.20;;;19.80;99.90;;;;;;5031230;28;20583;-71
2022/05/26 06:14:43;;;;;;;3.47;1.50;;;20.10;99.90;;;;;;5031338;28;20612;-71
2022/05/26 06:17:12;;;;;;;3.00;1.30;;;20.40;99.90;;;;;;5031530;28;20592;-71
2022/05/26 06:19:40;;;;;;;5.50;1.57;;;21.10;99.90;;;;;;5030620;28;20959;-71
2022/05/26 06:22:12;;;;;;;3.63;1.20;;;21.90;99.90;;;;;;5031437;28;20568;-71
2022/05/26 06:24:38;;;;;;;2.60;0.93;;;22.40;99.90;;;;;;5030923;28;20569;-71
2022/05/26 06:29:55;;;;;;;5.03;1.50;;;23.30;99.90;;;;;;5031073;28;20909;-73
2022/05/26 06:37:52;;;;;;;5.70;1.50;;;25.30;99.90;;;;;;5030351;28;20615;-72
2022/05/26 06:40:19;;;;;;;3.93;1.40;;;26.10;99.80;;;;;;5030286;28;20595;-72
2022/05/26 06:42:46;;;;;;;4.07;1.47;;;26.80;99.00;;;;;;5038642;28;20169;-72
2022/05/26 06:45:14;;;;;;;4.40;1.37;;;27.30;97.70;;;;;;5033507;28;20581;-72
2022/05/26 06:47:39;;;;;;;4.77;1.30;;;27.60;96.30;;;;;;5027129;28;20681;-72
2022/05/26 06:50:06;;;;;;;3.10;1.10;;;28.20;96.10;;;;;;5030610;28;20580;-72
2022/05/26 06:52:32;;;;;;;3.30;1.30;;;28.80;95.30;;;;;;5038763;28;20231;-72
2022/05/26 06:54:58;;;;;;;4.87;1.37;;;29.20;94.10;;;;;;5034717;28;20619;-72
2022/05/26 06:57:24;;;;;;;3.00;1.27;;;29.60;92.70;;;;;;5034901;28;20190;-72
2022/05/26 06:59:51;;;;;;;4.83;1.30;;;29.80;91.70;;;;;;5016540;28;21012;-73
2022/05/26 07:02:16;;;;;;;5.43;1.30;;;30.00;90.10;;;;;;5034897;28;20940;-73
2022/05/26 07:04:43;;;;;;;3.60;1.03;;;30.00;87.30;;;;;;5017209;28;20570;-73
2022/05/26 07:07:11;;;;;;;3.73;1.20;;;30.00;85.50;;;;;;5034753;28;20213;-73
2022/05/26 07:09:37;;;;;;;4.30;1.50;;;29.80;83.30;;;;;;5049049;28;20593;-72
2022/05/26 07:12:03;;;;;;;2.70;1.07;;;29.50;81.90;;;;;;5054949;28;21086;-73
2022/05/26 07:14:28;;;;;;;3.50;1.10;;;29.30;80.00;;;;;;5054609;28;20176;-73
2022/05/26 07:16:55;;;;;;;2.47;1.20;;;28.90;79.10;;;;;;5043167;28;20711;-72
2022/05/26 07:19:21;;;;;;;4.13;1.67;;;28.50;78.30;;;;;;5031584;28;20508;-73
2022/05/26 07:21:48;;;;;;;4.33;1.47;;;28.20;78.10;;;;;;5034497;28;20656;-73
2022/05/26 07:24:20;;;;;;;5.17;1.80;;;27.60;77.50;;;;;;5030940;28;20757;-72
2022/05/26 07:26:47;;;;;;;3.47;1.20;;;27.10;77.10;;;;;;5034180;28;20608;-73
2022/05/26 07:29:14;;;;;;;5.10;1.50;;;26.50;77.30;;;;;;5033803;28;20917;-72
2022/05/26 07:31:40;;;;;;;4.90;1.47;;;25.90;77.80;;;;;;5033898;28;20647;-72
2022/05/26 07:34:07;;;;;;;2.67;1.40;;;25.70;79.70;;;;;;5033193;28;20564;-72
2022/05/26 07:42:07;;;;;;;3.60;1.20;;;25.40;84.00;;;;;;5033782;28;20710;-73
2022/05/26 07:44:39;;;;;;;4.00;1.53;;;25.60;84.40;;;;;;5033784;28;20576;-72
2022/05/26 07:47:06;;;;;;;3.27;1.43;;;25.90;85.00;;;;;;5034013;28;20649;-73
2022/05/26 07:49:36;;;;;;;2.90;1.10;;;26.10;84.60;;;;;;5015870;28;20571;-72
2022/05/26 07:52:02;;;;;;;2.87;1.30;;;26.40;85.10;;;;;;5033730;28;20564;-72
2022/05/26 07:54:29;;;;;;;8.10;1.70;;;26.60;84.20;;;;;;5037924;28;21152;-72
2022/05/26 07:56:57;;;;;;;4.60;1.50;;;26.50;82.40;;;;;;5012820;28;20641;-72
2022/05/26 07:59:23;;;;;;;3.40;1.17;;;26.40;81.20;;;;;;5030797;28;20633;-72
2022/05/26 08:01:52;;;;;;;4.17;1.53;;;26.40;81.70;;;;;;5032666;28;20564;-72
2022/05/26 08:04:18;;;;;;;9.37;1.37;;;26.40;82.10;;;;;;5033730;28;20568;-72
2022/05/26 08:06:46;;;;;;;3.67;1.33;;;26.30;82.20;;;;;;5033449;28;20607;-72
2022/05/26 08:09:20;;;;;;;3.40;1.27;;;26.20;80.70;;;;;;5033445;28;20568;-72
2022/05/26 08:11:46;;;;;;;5.50;1.97;;;26.00;80.00;;;;;;5033761;28;20567;-72
2022/05/26 08:14:12;;;;;;;4.80;1.60;;;25.80;79.90;;;;;;5033490;28;20553;-72
2022/05/26 08:16:38;;;;;;;2.63;1.10;;;25.90;81.50;;;;;;5033442;28;21002;-72
2022/05/26 08:19:05;;;;;;;3.43;1.10;;;26.40;82.90;;;;;;5033576;28;20569;-72
2022/05/26 08:21:31;;;;;;;3.23;1.40;;;26.80;83.10;;;;;;5033333;28;20565;-72
2022/05/26 08:23:58;;;;;;;6.53;1.60;;;27.10;81.10;;;;;;5033571;28;20563;-72
2022/05/26 08:26:23;;;;;;;3.57;1.50;;;27.10;79.50;;;;;;4999378;28;21037;-72
2022/05/26 08:28:49;;;;;;;5.60;1.60;;;27.00;78.10;;;;;;5033432;28;20584;-73
2022/05/26 08:31:16;;;;;;;2.97;1.40;;;26.80;77.10;;;;;;5032775;28;20655;-72
2022/05/26 08:33:42;;;;;;;6.80;1.30;;;26.50;76.50;;;;;;5037127;28;20577;-72
2022/05/26 08:36:10;;;;;;;3.00;1.43;;;26.20;77.30;;;;;;5027072;28;20680;-72
2022/05/26 08:38:37;;;;;;;5.17;1.90;;;26.50;79.90;;;;;;5030385;28;20595;-72
2022/05/26 08:41:04;;;;;;;3.73;1.53;;;27.00;80.90;;;;;;5025286;28;20591;-72
2022/05/26 08:43:40;;;;;;;3.67;1.20;;;27.40;80.00;;;;;;5044589;28;20611;-72
2022/05/26 08:46:09;;;;;;;4.20;1.20;;;27.50;78.10;;;;;;5046360;28;20643;-72
2022/05/26 08:48:42;;;;;;;3.47;1.50;;;27.50;76.60;;;;;;5026427;28;20579;-72
2022/05/26 08:51:12;;;;;;;3.40;1.47;;;27.30;75.70;;;;;;5036304;28;20572;-72
2022/05/26 08:53:40;;;;;;;2.80;1.27;;;27.30;75.90;;;;;;4995673;28;20577;-72
2022/05/26 08:56:11;;;;;;;6.33;1.70;;;27.60;76.30;;;;;;4995609;28;21016;-72
2022/05/26 08:58:50;;;;;;;3.57;1.30;;;28.00;75.50;;;;;;4995305;28;20934;-72
2022/05/26 09:01:20;;;;;;;6.77;1.43;;;28.70;77.10;;;;;;5012393;28;20918;-72
2022/05/26 09:03:46;;;;;;;6.93;1.63;;;29.60;77.50;;;;;;5012862;28;20951;-73
2022/05/26 09:06:19;;;;;;;3.57;1.20;;;30.50;77.40;;;;;;5012214;28;20655;-73
2022/05/26 09:14:25;;;;;;;6.80;1.97;;;32.70;70.90;;;;;;4995131;28;20630;-73
2022/05/26 09:17:22;;;;;;;3.00;1.13;;;33.00;67.70;;;;;;4995020;28;20596;-72
2022/05/26 09:19:55;;;;;;;2.60;1.10;;;32.90;62.80;;;;;;4992343;28;21207;-73
2022/05/26 09:22:31;;;;;;;3.03;1.30;;;32.60;60.70;;;;;;5012558;28;20593;-73
2022/05/26 09:24:59;;;;;;;3.97;2.10;;;32.40;59.60;;;;;;4994739;28;20996;-72
2022/05/26 09:27:34;;;;;;;4.57;1.30;;;32.10;59.80;;;;;;5012029;28;20643;-73
2022/05/26 09:30:20;;;;;;;2.90;1.40;;;32.00;59.30;;;;;;5012207;28;20950;-73
2022/05/26 09:32:47;;;;;;;3.93;1.13;;;32.20;60.00;;;;;;5012725;28;20583;-73
2022/05/26 09:35:29;;;;;;;3.27;1.10;;;32.40;59.60;;;;;;5012697;28;20605;-73
2022/05/26 09:38:05;;;;;;;4.10;1.50;;;32.50;58.20;;;;;;5012818;28;20601;-73
2022/05/26 09:40:35;;;;;;;3.87;1.73;;;32.40;56.80;;;;;;4994247;28;20598;-73
2022/05/26 09:43:06;;;;;;;5.20;1.83;;;32.20;56.90;;;;;;5012574;28;20565;-73
2022/05/26 09:45:47;;;;;;;4.07;1.20;;;32.30;56.50;;;;;;5012622;28;20664;-73
2022/05/26 09:48:27;;;;;;;3.20;1.37;;;32.50;56.70;;;;;;4978739;28;20611;-73
2022/05/26 09:51:34;;;;;;;3.00;1.00;;;32.80;56.50;;;;;;5011705;28;20983;-73
2022/05/26 09:54:17;;;;;;;3.40;1.20;;;33.30;56.70;;;;;;4970835;28;20705;-73
2022/05/26 09:56:43;;;;;;;3.50;1.27;;;33.80;57.30;;;;;;4992374;28;20738;-74
2022/05/26 09:59:30;;;;;;;3.47;1.30;;;34.40;57.00;;;;;;5011944;28;20591;-73
2022/05/26 10:02:03;;;;;;;3.00;1.50;;;34.90;55.10;;;;;;5012035;28;20561;-73
2022/05/26 10:05:03;;;;;;;2.70;1.33;;;35.30;55.00;;;;;;5012326;28;20577;-74
2022/05/26 10:07:40;;;;;;;3.00;1.43;;;35.80;54.50;;;;;;5012016;28;20617;-73
2022/05/26 10:10:33;;;;;;;5.20;1.93;;;35.80;52.20;;;;;;5011102;28;20579;-73
2022/05/26 10:13:15;;;;;;;7.00;1.50;;;35.60;51.30;;;;;;5012213;28;20570;-73
2022/05/26 10:16:04;;;;;;;5.07;1.10;;;35.10;50.10;;;;;;4977823;28;20625;-73
2022/05/26 10:19:07;;;;;;;3.60;1.13;;;35.00;50.70;;;;;;5011870;28;20621;-73
2022/05/26 10:21:47;;;;;;;3.43;1.40;;;35.10;49.80;;;;;;5011517;28;20566;-73
2022/05/26 10:24:34;;;;;;;7.57;3.20;;;35.00;50.30;;;;;;5011612;28;20562;-74
2022/05/26 10:27:14;;;;;;;4.80;2.37;;;34.90;48.80;;;;;;5011761;28;21096;-73
2022/05/26 10:30:07;;;;;;;5.73;1.73;;;34.50;48.50;;;;;;4993456;28;20574;-73
2022/05/26 10:32:54;;;;;;;4.80;1.40;;;34.20;46.90;;;;;;5011858;28;20595;-73
2022/05/26 10:35:36;;;;;;;5.43;1.50;;;33.80;48.00;;;;;;5011634;28;20770;-73
2022/05/26 10:38:08;;;;;;;2.60;1.00;;;33.30;47.80;;;;;;5011547;28;20696;-73
2022/05/26 10:41:01;;;;;;;4.70;1.20;;;33.10;48.80;;;;;;5010907;28;20558;-72
2022/05/26 10:43:44;;;;;;;3.70;1.43;;;33.00;48.30;;;;;;5011568;28;20615;-73
2022/05/26 10:46:12;;;;;;;2.83;1.20;;;32.60;47.70;;;;;;5011021;28;20671;-72
2022/05/26 10:49:07;;;;;;;5.50;3.10;;;32.10;47.90;;;;;;5010348;28;20656;-72
2022/05/26 10:51:33;;;;;;;2.73;1.60;;;31.70;48.30;;;;;;4993418;28;20612;-72
2022/05/26 10:54:15;;;;;;;4.10;1.70;;;31.60;49.00;;;;;;4993916;28;20578;-72
2022/05/26 10:57:03;;;;;;;3.00;1.40;;;31.40;48.80;;;;;;5011321;28;20729;-71
2022/05/26 11:00:03;;;;;;;4.40;1.20;;;31.30;48.80;;;;;;4993379;28;20589;-73
2022/05/26 11:03:02;;;;;;;2.97;1.43;;;31.50;49.00;;;;;;5011458;28;20895;-72
2022/05/26 11:05:53;;;;;;;2.47;0.97;;;31.40;48.60;;;;;;5010244;28;20923;-72
2022/05/26 11:08:22;;;;;;;3.90;1.50;;;31.20;48.30;;;;;;5011009;28;20616;-72
2022/05/26 11:10:50;;;;;;;3.30;1.33;;;30.90;48.00;;;;;;5010579;28;21127;-72
2022/05/26 11:13:28;;;;;;;2.47;1.30;;;30.50;47.70;;;;;;5011464;28;20611;-72
2022/05/26 11:19:24;;;;;;;3.53;1.50;;;29.80;48.20;;;;;;5011200;28;20605;-72
2022/05/26 11:21:51;;;;;;;3.43;1.50;;;29.50;48.30;;;;;;5010820;28;20899;-72
2022/05/26 11:24:17;;;;;;;2.97;1.10;;;29.20;48.40;;;;;;5011436;28;20776;-72
2022/05/26 11:27:13;;;;;;;2.70;1.30;;;28.80;48.60;;;;;;5010902;28;20593;-72
2022/05/26 11:29:45;;;;;;;3.90;1.60;;;28.40;49.00;;;;;;4999282;28;20592;-72
2022/05/26 11:38:20;;;;;;;2.67;1.40;;;28.00;51.00;;;;;;4980657;28;20613;-72
2022/05/26 11:40:55;;;;;;;4.47;1.83;;;28.00;50.90;;;;;;5013735;28;20609;-72
2022/05/26 11:43:30;;;;;;;3.20;1.53;;;28.10;51.10;;;;;;5014564;28;20569;-72
2022/05/26 11:45:57;;;;;;;7.07;2.10;;;28.00;50.80;;;;;;4997072;28;20672;-72
2022/05/26 11:48:40;;;;;;;5.53;2.20;;;28.10;51.20;;;;;;5039722;28;20676;-72
2022/05/26 11:51:27;;;;;;;3.77;1.50;;;28.20;51.50;;;;;;5048742;28;20579;-72
2022/05/26 11:53:53;;;;;;;2.53;1.37;;;28.20;51.40;;;;;;5054179;28;20563;-72
2022/05/26 11:56:25;;;;;;;3.80;1.57;;;28.20;51.10;;;;;;5053804;28;20618;-72
2022/05/26 11:59:26;;;;;;;5.70;4.07;;;28.20;51.90;;;;;;5054196;28;20571;-72
2022/05/26 12:02:07;;;;;;;4.87;3.10;;;28.30;51.30;;;;;;5035865;28;20567;-72
2022/05/26 12:04:38;;;;;;;5.13;2.03;;;28.40;51.40;;;;;;5053874;28;20650;-72
2022/05/26 12:07:26;;;;;;;5.07;1.60;;;28.50;50.90;;;;;;5053542;28;20594;-72
2022/05/26 12:09:57;;;;;;;2.93;1.43;;;28.40;50.60;;;;;;5052659;28;20587;-72
2022/05/26 12:12:22;;;;;;;2.50;1.47;;;28.30;50.30;;;;;;5036031;28;20606;-72
2022/05/26 12:14:50;;;;;;;3.50;1.67;;;28.10;49.90;;;;;;5035679;28;20611;-72
2022/05/26 12:17:36;;;;;;;2.30;1.73;;;27.90;49.80;;;;;;5053617;28;20185;-72
2022/05/26 12:20:11;;;;;;;2.53;1.20;;;27.70;50.00;;;;;;5034645;28;20644;-72
2022/05/26 12:22:37;;;;;;;2.80;1.30;;;27.40;50.30;;;;;;5019627;28;21215;-72
2022/05/26 12:25:09;;;;;;;2.57;1.30;;;27.40;50.50;;;;;;5053461;28;20572;-72
2022/05/26 12:27:56;;;;;;;3.50;1.60;;;27.30;50.80;;;;;;5053405;28;20612;-72
2022/05/26 12:30:36;;;;;;;3.60;1.90;;;27.40;51.20;;;;;;5052473;28;20556;-72
2022/05/26 12:33:18;;;;;;;4.33;1.53;;;27.50;51.80;;;;;;5053208;28;20560;-72
2022/05/26 12:35:58;;;;;;;6.07;1.50;;;27.70;51.80;;;;;;5053010;28;20769;-72
2022/05/26 12:38:39;;;;;;;7.00;3.30;;;27.80;51.50;;;;;;5035095;28;20695;-73
2022/05/26 12:41:24;;;;;;;6.10;5.23;;;27.90;51.00;;;;;;5052509;28;20662;-72
2022/05/26 12:44:24;;;;;;;3.53;2.13;;;27.90;50.70;;;;;;5053109;28;20595;-72
2022/05/26 12:47:10;;;;;;;4.83;2.40;;;27.80;50.50;;;;;;5035086;28;20587;-72
2022/05/26 12:49:56;;;;;;;4.13;2.60;;;27.70;50.40;;;;;;5051966;28;20645;-72
2022/05/26 12:53:02;;;;;;;3.20;1.43;;;27.60;50.50;;;;;;5035240;28;20567;-72
2022/05/26 12:55:37;;;;;;;3.10;1.53;;;27.50;50.50;;;;;;5008334;28;20649;-72
2022/05/26 12:58:09;;;;;;;4.33;1.37;;;27.40;50.40;;;;;;5052704;28;20729;-72
2022/05/26 13:00:36;;;;;;;3.87;2.20;;;27.20;50.40;;;;;;5051965;28;20655;-72
2022/05/26 13:03:08;;;;;;;2.87;1.27;;;27.20;50.70;;;;;;5052487;28;20559;-72
2022/05/26 13:09:52;;;;;;;2.87;1.33;;;27.10;50.70;;;;;;5010729;28;20622;-72
2022/05/26 13:12:23;;;;;;;3.37;1.67;;;27.00;50.50;;;;;;5026402;28;21158;-72
2022/05/26 13:14:53;;;;;;;2.70;1.30;;;26.90;50.80;;;;;;5044845;28;20627;-73
2022/05/26 13:17:26;;;;;;;4.07;1.40;;;26.90;50.80;;;;;;5043837;28;20621;-72
2022/05/26 13:19:56;;;;;;;3.00;1.13;;;26.90;51.00;;;;;;5033393;28;20591;-72
2022/05/26 13:22:34;;;;;;;4.40;2.00;;;26.80;51.00;;;;;;5052373;28;20670;-73
2022/05/26 13:25:05;;;;;;;8.50;3.20;;;26.70;51.00;;;;;;5052395;28;20567;-73
2022/05/26 13:28:05;;;;;;;5.03;2.13;;;26.70;51.00;;;;;;5052161;28;20691;-72
2022/05/26 13:33:26;;;;;;;2.23;1.50;;;26.60;50.50;;;;;;5051855;28;20961;-73
2022/05/26 13:35:56;;;;;;;4.30;2.07;;;26.60;50.90;;;;;;5052004;28;20639;-73
2022/05/26 13:38:35;;;;;;;4.47;2.50;;;26.60;51.30;;;;;;5034042;28;20606;-73
2022/05/26 13:41:03;;;;;;;5.77;3.10;;;26.60;51.50;;;;;;5051357;28;20560;-73
2022/05/26 13:43:32;;;;;;;5.87;4.10;;;26.70;51.40;;;;;;5033950;28;21140;-73
2022/05/26 13:45:59;;;;;;;9.10;4.63;;;26.70;51.20;;;;;;5051805;28;20976;-73
2022/05/26 13:48:28;;;;;;;5.03;3.40;;;26.60;51.00;;;;;;5033691;28;20627;-73
2022/05/26 13:50:59;;;;;;;3.73;2.30;;;26.60;51.20;;;;;;5050475;28;20670;-73
2022/05/26 13:53:25;;;;;;;4.67;3.20;;;26.50;51.30;;;;;;5051642;28;20948;-73
2022/05/26 13:55:54;;;;;;;5.33;1.70;;;26.60;51.60;;;;;;5051589;28;20618;-73
2022/05/26 13:58:21;;;;;;;5.30;1.60;;;26.60;51.60;;;;;;5051707;28;20192;-73
2022/05/26 14:00:58;;;;;;;2.40;1.30;;;26.70;51.80;;;;;;5051114;28;21127;-74
2022/05/26 14:03:31;;;;;;;5.53;1.63;;;26.80;51.70;;;;;;5051304;28;20559;-72
2022/05/26 14:06:29;;;;;;;3.50;1.10;;;26.90;51.60;;;;;;5033993;28;20579;-72